MSC Ingrid — HOHA — position and weather

sailwx.info

Track history (hours):
 
Tides and Currents Weather Stations Pressure Air Temp Water Temp Dewpoint Dewpoint Depression Visibility Wind Speed Wind Dir Waves Ship Positions

MSC Ingrid

Last reported at 2016-Jun-24 19:33 UTC. Time now 2016-Jun-24 20:28 UTC.
Position N 37°60' E 008°59'.

Length 294 m; draft 11 m.

Type: Ship (hazmat cat A). MMSI: 354505000.

Date/timePositionNaut miles runAvg speedWind from/ knotsBaromVisibWave heightAir tempDewpointWater temp
2016-Jun-24 19:33N 37°60' E 008°59'1616.2
2016-Jun-24 18:32N 37°56' E 008°39'2416.5
2016-Jun-24 17:05N 37°52' E 008°09'7916.6
2016-Jun-24 12:19N 37°38' E 006°30'1317.1
2016-Jun-24 11:32N 37°35' E 006°14'1817.3
2016-Jun-24 10:31N 37°32' E 005°52'1616.6
2016-Jun-24 09:32N 37°30' E 005°32'1616.3
2016-Jun-24 08:34N 37°27' E 005°12'6716.7
2016-Jun-24 04:33N 37°14' E 003°50'1716.9
2016-Jun-24 03:33N 37°11' E 003°29'1716.6
2016-Jun-24 02:33N 37°08' E 003°08'1616.0
2016-Jun-24 01:33N 37°05' E 002°49'1716.7
2016-Jun-24 00:33N 37°01' E 002°28'1717.3
2016-Jun-23 23:33N 36°59' E 002°07'1717.4
2016-Jun-23 22:33N 36°57' E 001°45'1717.0
2016-Jun-23 21:33N 36°53' E 001°24'1716.5
2016-Jun-23 20:33N 36°48' E 001°04'1616.4
2016-Jun-23 19:33N 36°47' E 000°44'1616.1
2016-Jun-23 18:33N 36°45' E 000°24'1716.5
2016-Jun-23 17:33N 36°42' E 000°04'1716.7
2016-Jun-23 16:33N 36°39' W 000°17'1716.6
2016-Jun-23 15:32N 36°36' W 000°37'1616.0
2016-Jun-23 14:33N 36°33' W 000°57'8335.6
2016-Jun-23 12:13N 36°18' W 002°38'0 0.0
2016-Jun-23 11:22N 36°18' W 002°38'0 0.0
2016-Jun-23 10:31N 36°18' W 002°38'12415.2
2016-Jun-23 02:24N 35°60' W 005°10'1619.2
2016-Jun-23 01:34N 35°57' W 005°30'3216.1
2016-Jun-22 23:33N 35°53' W 006°09'1916.8
2016-Jun-22 22:26N 35°58' W 006°32'1516.9
2016-Jun-22 21:33N 36°03' W 006°49'1717.1
2016-Jun-22 20:33N 36°08' W 007°09'7317.9
2016-Jun-22 16:28N 36°25' W 008°37'2017.8
2016-Jun-22 15:21N 36°30' W 009°01'3016.3
2016-Jun-22 13:33N 36°46' W 009°32'1717.3
2016-Jun-22 12:33N 37°03' W 009°38'1717.3
2016-Jun-22 11:34N 37°20' W 009°43'1817.9
2016-Jun-22 10:32N 37°37' W 009°48'2020.7
2016-Jun-22 09:33N 37°57' W 009°54'2121.3
2016-Jun-22 08:33N 38°18' W 010°01'2121.1
2016-Jun-22 07:33N 38°38' W 010°07'2521.2
2016-Jun-22 06:22N 39°03' W 010°08'2021.4
2016-Jun-22 05:26N 39°23' W 010°08'64819.6
2016-Jun-20 20:23N 49°24' W 004°27'1720.0
2016-Jun-20 19:33N 49°33' W 004°05'2219.2
2016-Jun-20 18:26N 49°45' W 003°38'1719.0
2016-Jun-20 17:34N 49°54' W 003°16'2019.7
2016-Jun-20 16:34N 50°01' W 002°47'9022.1
2016-Jun-20 12:28N 50°25' W 000°31'1920.5
2016-Jun-20 11:33N 50°30' W 000°02'1919.2
2016-Jun-20 10:33N 50°34' E 000°27'2617.7
2016-Jun-20 09:06N 50°48' E 001°01'1019.1
2016-Jun-20 08:34N 50°56' E 001°12'1818.3
2016-Jun-20 07:33N 51°08' E 001°34'1818.1
2016-Jun-20 06:33N 51°21' E 001°54'1413.7
2016-Jun-20 05:33N 51°21' E 002°16'1413.6
2016-Jun-20 04:33N 51°23' E 002°38'1010.6
2016-Jun-20 03:33N 51°23' E 002°55'1312.6
2016-Jun-20 02:33N 51°25' E 003°15'1413.7
2016-Jun-20 01:33N 51°26' E 003°37'1010.4
2016-Jun-20 00:34N 51°21' E 003°51'7 7.5
2016-Jun-19 23:34N 51°23' E 004°02'8 8.2
2016-Jun-19 22:33N 51°21' E 004°15'2 1.5
2016-Jun-19 21:33N 51°21' E 004°17'1 1.4
2016-Jun-19 20:33N 51°20' E 004°18'1 0.9
2016-Jun-19 19:33N 51°20' E 004°20'0 0.0
2016-Jun-19 18:33N 51°20' E 004°20'0 0.0
2016-Jun-19 17:33N 51°20' E 004°20'0 0.0
2016-Jun-19 16:33N 51°20' E 004°20'0 0.0
2016-Jun-19 15:33N 51°20' E 004°20'0 0.0
2016-Jun-19 14:33N 51°20' E 004°20'0 0.0
2016-Jun-19 13:33N 51°19' E 004°20'0 0.0
2016-Jun-19 12:33N 51°20' E 004°20'0 0.0
2016-Jun-19 11:33N 51°20' E 004°20'0 0.0
2016-Jun-19 10:33N 51°20' E 004°20'0 0.0
2016-Jun-19 09:33N 51°20' E 004°20'0 0.0
2016-Jun-19 08:33N 51°20' E 004°20'0 0.0
2016-Jun-19 07:33N 51°20' E 004°20'0 0.0
2016-Jun-19 06:33N 51°20' E 004°20'0 0.0
2016-Jun-19 05:33N 51°20' E 004°20'0 0.0
2016-Jun-19 04:33N 51°20' E 004°20'0 0.0
2016-Jun-19 03:33N 51°20' E 004°20'0 0.0
2016-Jun-19 02:33N 51°20' E 004°20'0 0.0
2016-Jun-19 01:33N 51°20' E 004°20'0 0.0
2016-Jun-19 00:33N 51°20' E 004°20'0 0.0
2016-Jun-18 23:33N 51°20' E 004°20'0 0.0
2016-Jun-18 22:30N 51°20' E 004°20'0 0.0
2016-Jun-18 21:33N 51°20' E 004°20'0 0.0
2016-Jun-18 20:33N 51°20' E 004°20'0 0.0
2016-Jun-18 19:33N 51°20' E 004°20'0 0.0
2016-Jun-18 18:33N 51°20' E 004°20'0 0.0
2016-Jun-18 17:33N 51°20' E 004°20'0 0.0
2016-Jun-18 16:33N 51°20' E 004°20'0 0.0
2016-Jun-18 15:33N 51°20' E 004°20'0 0.0
2016-Jun-18 14:33N 51°20' E 004°20'0 0.0
2016-Jun-18 13:33N 51°20' E 004°20'0 0.0
2016-Jun-18 12:33N 51°20' E 004°20'0 0.0
2016-Jun-18 11:32N 51°20' E 004°20'0 0.0
2016-Jun-18 10:33N 51°20' E 004°20'0 0.0
2016-Jun-18 09:32N 51°20' E 004°20'0 0.0
2016-Jun-18 08:32N 51°20' E 004°20'0 0.0
2016-Jun-18 07:32N 51°20' E 004°20'0 0.0
2016-Jun-18 06:32N 51°20' E 004°20'0 0.0
2016-Jun-18 05:32N 51°20' E 004°20'0 0.0
2016-Jun-18 04:32N 51°20' E 004°20'0 0.0
2016-Jun-18 03:32N 51°19' E 004°20'0 0.0
2016-Jun-18 02:32N 51°20' E 004°20'0 0.0
2016-Jun-18 01:32N 51°20' E 004°20'0 0.0
2016-Jun-18 00:32N 51°20' E 004°20'2 2.2
2016-Jun-17 23:34N 51°21' E 004°17'1 0.6
2016-Jun-17 22:33N 51°21' E 004°16'8 7.6
2016-Jun-17 21:34N 51°22' E 004°04'9 9.3
2016-Jun-17 20:34N 51°21' E 003°50'1212.1
2016-Jun-17 19:33N 51°25' E 003°32'1716.8
2016-Jun-17 18:33N 51°24' E 003°05'1313.1
2016-Jun-17 17:33N 51°37' E 003°10'16 7.9
2016-Jun-17 15:33N 51°50' E 003°24'1 0.1
2016-Jun-17 09:33N 51°50' E 003°23'17 5.8
2016-Jun-17 06:33N 52°04' E 003°41'8 8.3
2016-Jun-17 05:33N 52°02' E 003°54'8 7.7
2016-Jun-17 04:33N 51°58' E 004°04'0 0.0
2016-Jun-17 03:31N 51°58' E 004°04'0 0.0
2016-Jun-17 02:31N 51°58' E 004°04'0 0.0
2016-Jun-17 01:31N 51°58' E 004°04'0 0.0
2016-Jun-17 00:34N 51°58' E 004°04'0 0.0
2016-Jun-16 23:34N 51°58' E 004°04'0 0.0
2016-Jun-16 22:33N 51°58' E 004°04'0 0.0
2016-Jun-16 21:33N 51°58' E 004°04'0 0.0
2016-Jun-16 20:33N 51°58' E 004°04'0 0.0
2016-Jun-16 19:33N 51°58' E 004°04'0 0.0
2016-Jun-16 18:33N 51°58' E 004°04'0 0.0
2016-Jun-16 17:33N 51°58' E 004°04'0 0.0
2016-Jun-16 16:33N 51°58' E 004°04'0 0.0
2016-Jun-16 15:33N 51°58' E 004°04'0 0.0
2016-Jun-16 14:33N 51°58' E 004°04'0 0.0
2016-Jun-16 13:33N 51°58' E 004°04'0 0.0
2016-Jun-16 12:33N 51°58' E 004°04'3 2.6
2016-Jun-16 11:34N 51°60' E 004°01'1212.1
2016-Jun-16 10:34N 51°59' E 003°42'1515.4
2016-Jun-16 09:33N 51°54' E 003°18'2315.3
2016-Jun-16 08:03N 51°49' E 002°41'815.9
2016-Jun-16 07:31N 51°54' E 002°30'1515.7
2016-Jun-16 06:34N 51°52' E 002°06'1514.8
2016-Jun-16 05:34N 51°50' E 001°42'1211.8
2016-Jun-16 04:33N 51°56' E 001°26'5 5.4
2016-Jun-16 03:33N 51°58' E 001°18'0 0.0
2016-Jun-16 02:31N 51°58' E 001°18'0 0.0
2016-Jun-16 01:31N 51°58' E 001°18'0 0.0
2016-Jun-16 00:31N 51°58' E 001°18'0 0.0
2016-Jun-15 23:31N 51°58' E 001°18'0 0.0
2016-Jun-15 22:31N 51°58' E 001°18'0 0.0
2016-Jun-15 21:31N 51°58' E 001°18'0 0.0
2016-Jun-15 20:31N 51°58' E 001°18'0 0.0
2016-Jun-15 19:31N 51°58' E 001°18'0 0.0
2016-Jun-15 18:31N 51°58' E 001°18'0 0.0
2016-Jun-15 17:31N 51°58' E 001°18'0 0.0
2016-Jun-15 16:31N 51°58' E 001°18'0 0.0
2016-Jun-15 15:31N 51°58' E 001°18'0 0.0
2016-Jun-15 14:31N 51°58' E 001°18'0 0.0
2016-Jun-15 13:31N 51°58' E 001°18'0 0.0
2016-Jun-15 12:31N 51°58' E 001°18'0 0.0
2016-Jun-15 11:31N 51°58' E 001°18'0 0.0
2016-Jun-15 10:31N 51°58' E 001°18'0 0.0
2016-Jun-15 09:31N 51°58' E 001°18'0 0.0
2016-Jun-15 08:31N 51°58' E 001°18'0 0.0
2016-Jun-15 07:31N 51°58' E 001°18'0 0.0
2016-Jun-15 06:31N 51°58' E 001°18'0 0.2
2016-Jun-15 05:33N 51°58' E 001°18'6 5.7
2016-Jun-15 04:33N 51°56' E 001°27'1110.8
2016-Jun-15 03:33N 51°51' E 001°43'9 9.5
2016-Jun-15 02:33N 51°43' E 001°49'1212.0
2016-Jun-15 01:34N 51°31' E 001°53'1413.5
2016-Jun-15 00:33N 51°21' E 002°08'1313.0
2016-Jun-14 23:33N 51°11' E 001°55'1414.5
2016-Jun-14 22:33N 51°02' E 001°37'1514.7
2016-Jun-14 21:33N 50°49' E 001°24'  
Track history (hours):
 
Tides and Currents Weather Stations Pressure Air Temp Water Temp Dewpoint Dewpoint Depression Visibility Wind Speed Wind Dir Waves Ship Positions

MSC Ingrid

Last reported at 2016-Jun-24 19:33 UTC. Time now 2016-Jun-24 20:28 UTC.
Position N 37°60' E 008°59'.

Length 294 m; draft 11 m.

Type: Ship (hazmat cat A). MMSI: 354505000.

Date/timePositionNaut miles runAvg speedWind from/ knotsBaromVisibWave heightAir tempDewpointWater temp
2016-Jun-24 19:33N 37°60' E 008°59'1616.2
2016-Jun-24 18:32N 37°56' E 008°39'2416.5
2016-Jun-24 17:05N 37°52' E 008°09'7916.6
2016-Jun-24 12:19N 37°38' E 006°30'1317.1
2016-Jun-24 11:32N 37°35' E 006°14'1817.3
2016-Jun-24 10:31N 37°32' E 005°52'1616.6
2016-Jun-24 09:32N 37°30' E 005°32'1616.3
2016-Jun-24 08:34N 37°27' E 005°12'6716.7
2016-Jun-24 04:33N 37°14' E 003°50'1716.9
2016-Jun-24 03:33N 37°11' E 003°29'1716.6
2016-Jun-24 02:33N 37°08' E 003°08'1616.0
2016-Jun-24 01:33N 37°05' E 002°49'1716.7
2016-Jun-24 00:33N 37°01' E 002°28'1717.3
2016-Jun-23 23:33N 36°59' E 002°07'1717.4
2016-Jun-23 22:33N 36°57' E 001°45'1717.0
2016-Jun-23 21:33N 36°53' E 001°24'1716.5
2016-Jun-23 20:33N 36°48' E 001°04'1616.4
2016-Jun-23 19:33N 36°47' E 000°44'1616.1
2016-Jun-23 18:33N 36°45' E 000°24'1716.5
2016-Jun-23 17:33N 36°42' E 000°04'1716.7
2016-Jun-23 16:33N 36°39' W 000°17'1716.6
2016-Jun-23 15:32N 36°36' W 000°37'1616.0
2016-Jun-23 14:33N 36°33' W 000°57'8335.6
2016-Jun-23 12:13N 36°18' W 002°38'0 0.0
2016-Jun-23 11:22N 36°18' W 002°38'0 0.0
2016-Jun-23 10:31N 36°18' W 002°38'12415.2
2016-Jun-23 02:24N 35°60' W 005°10'1619.2
2016-Jun-23 01:34N 35°57' W 005°30'3216.1
2016-Jun-22 23:33N 35°53' W 006°09'1916.8
2016-Jun-22 22:26N 35°58' W 006°32'1516.9
2016-Jun-22 21:33N 36°03' W 006°49'1717.1
2016-Jun-22 20:33N 36°08' W 007°09'7317.9
2016-Jun-22 16:28N 36°25' W 008°37'2017.8
2016-Jun-22 15:21N 36°30' W 009°01'3016.3
2016-Jun-22 13:33N 36°46' W 009°32'1717.3
2016-Jun-22 12:33N 37°03' W 009°38'1717.3
2016-Jun-22 11:34N 37°20' W 009°43'1817.9
2016-Jun-22 10:32N 37°37' W 009°48'2020.7
2016-Jun-22 09:33N 37°57' W 009°54'2121.3
2016-Jun-22 08:33N 38°18' W 010°01'2121.1
2016-Jun-22 07:33N 38°38' W 010°07'2521.2
2016-Jun-22 06:22N 39°03' W 010°08'2021.4
2016-Jun-22 05:26N 39°23' W 010°08'64819.6
2016-Jun-20 20:23N 49°24' W 004°27'1720.0
2016-Jun-20 19:33N 49°33' W 004°05'2219.2
2016-Jun-20 18:26N 49°45' W 003°38'1719.0
2016-Jun-20 17:34N 49°54' W 003°16'2019.7
2016-Jun-20 16:34N 50°01' W 002°47'9022.1
2016-Jun-20 12:28N 50°25' W 000°31'1920.5
2016-Jun-20 11:33N 50°30' W 000°02'1919.2
2016-Jun-20 10:33N 50°34' E 000°27'2617.7
2016-Jun-20 09:06N 50°48' E 001°01'1019.1
2016-Jun-20 08:34N 50°56' E 001°12'1818.3
2016-Jun-20 07:33N 51°08' E 001°34'1818.1
2016-Jun-20 06:33N 51°21' E 001°54'1413.7
2016-Jun-20 05:33N 51°21' E 002°16'1413.6
2016-Jun-20 04:33N 51°23' E 002°38'1010.6
2016-Jun-20 03:33N 51°23' E 002°55'1312.6
2016-Jun-20 02:33N 51°25' E 003°15'1413.7
2016-Jun-20 01:33N 51°26' E 003°37'1010.4
2016-Jun-20 00:34N 51°21' E 003°51'7 7.5
2016-Jun-19 23:34N 51°23' E 004°02'8 8.2
2016-Jun-19 22:33N 51°21' E 004°15'2 1.5
2016-Jun-19 21:33N 51°21' E 004°17'1 1.4
2016-Jun-19 20:33N 51°20' E 004°18'1 0.9
2016-Jun-19 19:33N 51°20' E 004°20'0 0.0
2016-Jun-19 18:33N 51°20' E 004°20'0 0.0
2016-Jun-19 17:33N 51°20' E 004°20'0 0.0
2016-Jun-19 16:33N 51°20' E 004°20'0 0.0
2016-Jun-19 15:33N 51°20' E 004°20'0 0.0
2016-Jun-19 14:33N 51°20' E 004°20'0 0.0
2016-Jun-19 13:33N 51°19' E 004°20'0 0.0
2016-Jun-19 12:33N 51°20' E 004°20'0 0.0
2016-Jun-19 11:33N 51°20' E 004°20'0 0.0
2016-Jun-19 10:33N 51°20' E 004°20'0 0.0
2016-Jun-19 09:33N 51°20' E 004°20'0 0.0
2016-Jun-19 08:33N 51°20' E 004°20'0 0.0
2016-Jun-19 07:33N 51°20' E 004°20'0 0.0
2016-Jun-19 06:33N 51°20' E 004°20'0 0.0
2016-Jun-19 05:33N 51°20' E 004°20'0 0.0
2016-Jun-19 04:33N 51°20' E 004°20'0 0.0
2016-Jun-19 03:33N 51°20' E 004°20'0 0.0
2016-Jun-19 02:33N 51°20' E 004°20'0 0.0
2016-Jun-19 01:33N 51°20' E 004°20'0 0.0
2016-Jun-19 00:33N 51°20' E 004°20'0 0.0
2016-Jun-18 23:33N 51°20' E 004°20'0 0.0
2016-Jun-18 22:30N 51°20' E 004°20'0 0.0
2016-Jun-18 21:33N 51°20' E 004°20'0 0.0
2016-Jun-18 20:33N 51°20' E 004°20'0 0.0
2016-Jun-18 19:33N 51°20' E 004°20'0 0.0
2016-Jun-18 18:33N 51°20' E 004°20'0 0.0
2016-Jun-18 17:33N 51°20' E 004°20'0 0.0
2016-Jun-18 16:33N 51°20' E 004°20'0 0.0
2016-Jun-18 15:33N 51°20' E 004°20'0 0.0
2016-Jun-18 14:33N 51°20' E 004°20'0 0.0
2016-Jun-18 13:33N 51°20' E 004°20'0 0.0
2016-Jun-18 12:33N 51°20' E 004°20'0 0.0
2016-Jun-18 11:32N 51°20' E 004°20'0 0.0
2016-Jun-18 10:33N 51°20' E 004°20'0 0.0
2016-Jun-18 09:32N 51°20' E 004°20'0 0.0
2016-Jun-18 08:32N 51°20' E 004°20'0 0.0
2016-Jun-18 07:32N 51°20' E 004°20'0 0.0
2016-Jun-18 06:32N 51°20' E 004°20'0 0.0
2016-Jun-18 05:32N 51°20' E 004°20'0 0.0
2016-Jun-18 04:32N 51°20' E 004°20'0 0.0
2016-Jun-18 03:32N 51°19' E 004°20'0 0.0
2016-Jun-18 02:32N 51°20' E 004°20'0 0.0
2016-Jun-18 01:32N 51°20' E 004°20'0 0.0
2016-Jun-18 00:32N 51°20' E 004°20'2 2.2
2016-Jun-17 23:34N 51°21' E 004°17'1 0.6
2016-Jun-17 22:33N 51°21' E 004°16'8 7.6
2016-Jun-17 21:34N 51°22' E 004°04'9 9.3
2016-Jun-17 20:34N 51°21' E 003°50'1212.1
2016-Jun-17 19:33N 51°25' E 003°32'1716.8
2016-Jun-17 18:33N 51°24' E 003°05'1313.1
2016-Jun-17 17:33N 51°37' E 003°10'16 7.9
2016-Jun-17 15:33N 51°50' E 003°24'1 0.1
2016-Jun-17 09:33N 51°50' E 003°23'17 5.8
2016-Jun-17 06:33N 52°04' E 003°41'8 8.3
2016-Jun-17 05:33N 52°02' E 003°54'8 7.7
2016-Jun-17 04:33N 51°58' E 004°04'0 0.0
2016-Jun-17 03:31N 51°58' E 004°04'0 0.0
2016-Jun-17 02:31N 51°58' E 004°04'0 0.0
2016-Jun-17 01:31N 51°58' E 004°04'0 0.0
2016-Jun-17 00:34N 51°58' E 004°04'0 0.0
2016-Jun-16 23:34N 51°58' E 004°04'0 0.0
2016-Jun-16 22:33N 51°58' E 004°04'0 0.0
2016-Jun-16 21:33N 51°58' E 004°04'0 0.0
2016-Jun-16 20:33N 51°58' E 004°04'0 0.0
2016-Jun-16 19:33N 51°58' E 004°04'0 0.0
2016-Jun-16 18:33N 51°58' E 004°04'0 0.0
2016-Jun-16 17:33N 51°58' E 004°04'0 0.0
2016-Jun-16 16:33N 51°58' E 004°04'0 0.0
2016-Jun-16 15:33N 51°58' E 004°04'0 0.0
2016-Jun-16 14:33N 51°58' E 004°04'0 0.0
2016-Jun-16 13:33N 51°58' E 004°04'0 0.0
2016-Jun-16 12:33N 51°58' E 004°04'3 2.6
2016-Jun-16 11:34N 51°60' E 004°01'1212.1
2016-Jun-16 10:34N 51°59' E 003°42'1515.4
2016-Jun-16 09:33N 51°54' E 003°18'2315.3
2016-Jun-16 08:03N 51°49' E 002°41'815.9
2016-Jun-16 07:31N 51°54' E 002°30'1515.7
2016-Jun-16 06:34N 51°52' E 002°06'1514.8
2016-Jun-16 05:34N 51°50' E 001°42'1211.8
2016-Jun-16 04:33N 51°56' E 001°26'5 5.4
2016-Jun-16 03:33N 51°58' E 001°18'0 0.0
2016-Jun-16 02:31N 51°58' E 001°18'0 0.0
2016-Jun-16 01:31N 51°58' E 001°18'0 0.0
2016-Jun-16 00:31N 51°58' E 001°18'0 0.0
2016-Jun-15 23:31N 51°58' E 001°18'0 0.0
2016-Jun-15 22:31N 51°58' E 001°18'0 0.0
2016-Jun-15 21:31N 51°58' E 001°18'0 0.0
2016-Jun-15 20:31N 51°58' E 001°18'0 0.0
2016-Jun-15 19:31N 51°58' E 001°18'0 0.0
2016-Jun-15 18:31N 51°58' E 001°18'0 0.0
2016-Jun-15 17:31N 51°58' E 001°18'0 0.0
2016-Jun-15 16:31N 51°58' E 001°18'0 0.0
2016-Jun-15 15:31N 51°58' E 001°18'0 0.0
2016-Jun-15 14:31N 51°58' E 001°18'0 0.0
2016-Jun-15 13:31N 51°58' E 001°18'0 0.0
2016-Jun-15 12:31N 51°58' E 001°18'0 0.0
2016-Jun-15 11:31N 51°58' E 001°18'0 0.0
2016-Jun-15 10:31N 51°58' E 001°18'0 0.0
2016-Jun-15 09:31N 51°58' E 001°18'0 0.0
2016-Jun-15 08:31N 51°58' E 001°18'0 0.0
2016-Jun-15 07:31N 51°58' E 001°18'0 0.0
2016-Jun-15 06:31N 51°58' E 001°18'0 0.2
2016-Jun-15 05:33N 51°58' E 001°18'6 5.7
2016-Jun-15 04:33N 51°56' E 001°27'1110.8
2016-Jun-15 03:33N 51°51' E 001°43'9 9.5
2016-Jun-15 02:33N 51°43' E 001°49'1212.0
2016-Jun-15 01:34N 51°31' E 001°53'1413.5
2016-Jun-15 00:33N 51°21' E 002°08'1313.0
2016-Jun-14 23:33N 51°11' E 001°55'1414.5
2016-Jun-14 22:33N 51°02' E 001°37'1514.7
2016-Jun-14 21:33N 50°49' E 001°24'  

Dump ship's entire track history